Time;durP1;ratioP1;P1;durP2;ratioP2;P2;SDS_P1;SDS_P2;PMS_P1;PMS_P2;Temp;Humidity;BMP_temperature;BMP_pressure;BME280_temperature;BME280_humidity;BME280_pressure;Samples;Min_cycle;Max_cycle;Signal;HPM_P1;HPM_P2
2022/06/27 00:02:05;;;;;;;;;2.00;1.00;;;;;21.79;47.81;101157.06;5056882;28;45417;-85
2022/06/27 00:04:31;;;;;;;;;2.00;2.00;;;;;21.54;48.01;101112.16;5048803;28;46061;-86
2022/06/27 00:06:56;;;;;;;;;1.00;1.00;;;;;21.66;48.36;101140.97;5049243;28;45508;-84
2022/06/27 00:09:21;;;;;;;;;2.00;2.00;;;;;21.79;48.00;101165.22;5047107;28;45470;-84
2022/06/27 00:11:47;;;;;;;;;3.00;2.00;;;;;21.75;48.69;101164.63;5044384;28;45450;-86
2022/06/27 00:14:12;;;;;;;;;1.67;1.67;;;;;21.75;48.74;101164.63;5052066;28;45904;-85
2022/06/27 00:16:37;;;;;;;;;2.67;1.67;;;;;21.64;48.29;101146.53;5047824;28;45536;-85
2022/06/27 00:19:03;;;;;;;;;2.33;1.33;;;;;21.70;48.96;101159.59;5048247;28;45413;-85
2022/06/27 00:21:28;;;;;;;;;1.00;1.00;;;;;21.44;49.34;101125.63;5047686;28;45571;-86
2022/06/27 00:23:54;;;;;;;;;2.33;1.00;;;;;21.47;49.18;101142.53;5045432;28;46896;-86
2022/06/27 00:26:19;;;;;;;;;1.00;1.00;;;;;21.40;48.88;101129.56;5044810;28;45356;-84
2022/06/27 00:28:44;;;;;;;;;2.00;1.33;;;;;21.58;49.40;101170.59;5051821;28;45523;-86
2022/06/27 00:31:10;;;;;;;;;1.00;1.00;;;;;21.42;49.51;101144.75;5051185;28;45620;-85
2022/06/27 00:33:35;;;;;;;;;2.00;2.00;;;;;21.40;49.40;101140.44;5047857;28;45412;-85
2022/06/27 00:36:00;;;;;;;;;0.33;0.33;;;;;21.53;49.51;101153.84;5053375;28;45633;-85
2022/06/27 00:38:26;;;;;;;;;1.00;1.00;;;;;21.48;49.20;101154.22;5046378;28;45532;-85
2022/06/27 00:40:52;;;;;;;;;2.00;2.00;;;;;21.25;49.27;101116.28;5048087;28;45461;-86
2022/06/27 00:43:17;;;;;;;;;0.67;0.00;;;;;21.30;49.72;101126.75;5026765;28;47063;-86
2022/06/27 00:45:42;;;;;;;;;2.33;2.33;;;;;21.32;49.48;101135.63;5053593;28;45456;-85
2022/06/27 00:48:08;;;;;;;;;1.00;1.00;;;;;21.37;49.63;101154.22;5053794;28;45561;-85
2022/06/27 00:50:33;;;;;;;;;3.67;1.00;;;;;21.22;49.74;101131.94;5052161;28;45467;-85
2022/06/27 00:52:59;;;;;;;;;1.00;1.00;;;;;21.38;49.56;101164.09;5045830;28;45988;-84
2022/06/27 00:55:24;;;;;;;;;0.33;0.33;;;;;21.31;50.19;101157.47;5052837;28;45506;-85
2022/06/27 00:57:50;;;;;;;;;2.00;2.00;;;;;21.35;50.37;101172.47;5051864;28;45508;-85
2022/06/27 01:00:16;;;;;;;;;1.00;1.00;;;;;21.22;50.46;101146.38;5046013;28;45472;-86
2022/06/27 01:02:42;;;;;;;;;2.00;2.00;;;;;21.34;50.13;101174.31;5045318;28;45562;-86
2022/06/27 01:05:08;;;;;;;;;1.00;1.00;;;;;21.31;49.88;101162.88;5044789;28;45503;-85
2022/06/27 01:07:34;;;;;;;;;1.00;1.00;;;;;21.28;50.25;101163.97;5047538;28;45490;-85
2022/06/27 01:10:01;;;;;;;;;1.00;1.00;;;;;21.35;49.88;101183.31;5049867;28;45819;-85
2022/06/27 01:12:26;;;;;;;;;2.00;2.00;;;;;21.33;49.91;101177.16;5052920;28;45443;-84
2022/06/27 01:14:52;;;;;;;;;1.00;1.00;;;;;21.22;50.50;101157.22;5045305;28;45334;-84
2022/06/27 01:17:17;;;;;;;;;3.00;2.00;;;;;21.34;50.12;101174.31;5053053;28;45491;-86
2022/06/27 01:19:43;;;;;;;;;1.00;1.00;;;;;21.31;50.18;101180.00;5046988;28;45775;-86
2022/06/27 01:22:10;;;;;;;;;1.67;1.67;;;;;21.02;50.50;101129.00;5046688;28;45957;-85
2022/06/27 01:24:36;;;;;;;;;4.00;3.00;;;;;21.21;50.74;101165.47;5047058;28;45488;-85
2022/06/27 01:27:04;;;;;;;;;1.00;1.00;;;;;21.27;50.58;101187.50;5051506;28;46432;-85
2022/06/27 01:29:29;;;;;;;;;1.00;1.00;;;;;21.08;50.60;101149.34;5051635;28;45356;-86
2022/06/27 01:31:55;;;;;;;;;1.00;1.00;;;;;20.95;50.96;101114.25;5048687;28;45361;-85
2022/06/27 01:34:21;;;;;;;;;1.00;1.00;;;;;20.97;50.94;101114.97;5051709;28;45483;-85
2022/06/27 01:36:47;;;;;;;;;2.00;1.00;;;;;21.22;50.63;101164.50;5052198;28;45445;-85
2022/06/27 01:39:19;;;;;;;;;1.67;1.67;;;;;20.92;50.78;101125.34;5029990;28;45577;-85
2022/06/27 01:41:47;;;;;;;;;2.67;2.67;;;;;21.19;50.88;101176.44;5041931;28;46726;-85
2022/06/27 01:44:14;;;;;;;;;0.00;0.00;;;;;20.96;50.32;101140.38;5052729;28;45497;-85
2022/06/27 01:46:49;;;;;;;;;1.00;1.00;;;;;20.98;50.79;101145.69;5055394;28;45418;-85
2022/06/27 01:49:15;;;;;;;;;1.00;1.00;;;;;21.15;50.76;101188.53;5049611;28;45534;-84
2022/06/27 01:51:49;;;;;;;;;3.00;1.67;;;;;21.16;50.67;101186.66;5049810;28;45494;-86
2022/06/27 01:54:18;;;;;;;;;3.00;1.00;;;;;21.05;50.82;101164.00;5054650;28;45558;-86
2022/06/27 01:56:46;;;;;;;;;2.67;2.00;;;;;20.97;50.97;101147.50;5043398;28;45321;-85
2022/06/27 01:59:14;;;;;;;;;2.00;1.00;;;;;20.90;50.77;101137.28;5043311;28;45515;-85
2022/06/27 02:01:41;;;;;;;;;2.00;2.00;;;;;21.07;51.19;101170.19;5049129;28;46188;-85
2022/06/27 02:04:07;;;;;;;;;1.00;1.00;;;;;20.75;51.08;101118.59;5046404;28;45932;-85
2022/06/27 02:06:33;;;;;;;;;1.00;1.00;;;;;20.78;51.16;101121.03;5046192;28;45600;-85
2022/06/27 02:09:02;;;;;;;;;2.00;2.00;;;;;21.05;51.06;101160.44;5043820;28;45405;-85
2022/06/27 02:11:27;;;;;;;;;0.67;0.67;;;;;20.85;50.72;101134.94;5040260;28;46106;-85
2022/06/27 02:13:55;;;;;;;;;1.00;1.00;;;;;20.96;51.11;101156.63;5052516;28;45290;-86
2022/06/27 02:16:20;;;;;;;;;0.33;0.33;;;;;20.87;50.88;101144.69;5053995;28;45560;-85
2022/06/27 02:18:47;;;;;;;;;0.33;0.33;;;;;20.96;51.19;101161.19;5050401;28;45560;-85
2022/06/27 02:21:16;;;;;;;;;0.67;0.67;;;;;20.87;51.00;101136.56;5043169;28;46128;-85
2022/06/27 02:23:41;;;;;;;;;1.00;1.00;;;;;20.77;51.12;101119.31;5041248;28;45349;-84
2022/06/27 02:26:10;;;;;;;;;1.00;1.00;;;;;20.91;50.88;101161.56;5051115;28;45496;-85
2022/06/27 02:28:36;;;;;;;;;1.00;1.00;;;;;20.75;51.53;101142.09;5048361;28;45617;-85
2022/06/27 02:31:02;;;;;;;;;3.00;2.00;;;;;20.78;51.08;101160.81;5048020;28;46164;-86
2022/06/27 02:33:39;;;;;;;;;1.00;1.00;;;;;20.85;51.37;101170.19;5031824;28;45527;-86
2022/06/27 02:36:09;;;;;;;;;2.00;1.00;;;;;20.82;51.14;101174.00;5051959;28;45494;-85
2022/06/27 02:38:36;;;;;;;;;1.67;1.67;;;;;20.57;51.00;101129.03;5044053;28;45494;-87
2022/06/27 02:41:05;;;;;;;;;1.00;1.00;;;;;20.87;51.18;101174.47;5049247;28;46293;-86
2022/06/27 02:43:33;;;;;;;;;3.00;0.67;;;;;20.89;51.47;101168.94;5048866;28;45632;-85
2022/06/27 02:45:59;;;;;;;;;1.00;1.00;;;;;20.82;51.32;101163.16;5046847;28;45495;-85
2022/06/27 02:48:26;;;;;;;;;1.00;1.00;;;;;20.88;51.18;101180.75;5052616;28;45395;-85
2022/06/27 02:50:56;;;;;;;;;1.67;1.00;;;;;20.84;51.44;101177.44;5041055;28;47259;-85
2022/06/27 02:53:27;;;;;;;;;1.00;1.00;;;;;20.90;51.62;101181.50;5044245;28;45414;-85
2022/06/27 02:55:59;;;;;;;;;1.00;1.00;;;;;20.74;51.80;101156.63;5053393;28;45452;-86
2022/06/27 02:58:28;;;;;;;;;1.00;1.00;;;;;20.91;51.56;101179.66;5046763;28;45562;-84
2022/06/27 03:00:56;;;;;;;;;2.33;2.00;;;;;20.91;51.56;101168.81;5045159;28;47325;-86
2022/06/27 03:03:24;;;;;;;;;1.67;1.67;;;;;20.92;51.32;101175.97;5044905;28;45474;-85
2022/06/27 03:05:55;;;;;;;;;1.00;1.00;;;;;20.92;51.39;101178.69;5051123;28;45509;-86
2022/06/27 03:08:21;;;;;;;;;3.00;2.00;;;;;20.92;51.82;101179.53;5042438;28;45613;-86
2022/06/27 03:10:46;;;;;;;;;1.00;1.00;;;;;20.86;51.49;101171.88;5046096;28;47414;-85
2022/06/27 03:13:13;;;;;;;;;1.33;1.00;;;;;20.64;51.75;101130.28;5050730;28;45519;-84
2022/06/27 03:15:39;;;;;;;;;1.00;1.00;;;;;20.89;52.01;101189.78;5051773;28;45396;-85
2022/06/27 03:18:04;;;;;;;;;1.33;1.00;;;;;20.90;51.60;101184.22;5047634;28;45546;-85
2022/06/27 03:20:29;;;;;;;;;1.00;1.00;;;;;20.86;51.66;101177.31;5040636;28;46009;-86
2022/06/27 03:22:55;;;;;;;;;3.00;1.00;;;;;20.79;52.09;101162.53;5046922;28;45403;-85
2022/06/27 03:25:20;;;;;;;;;2.00;2.00;;;;;20.69;51.55;101148.00;5046863;28;45345;-85
2022/06/27 03:27:45;;;;;;;;;0.67;0.67;;;;;20.55;52.44;101116.56;5045875;28;45434;-85
2022/06/27 03:30:11;;;;;;;;;3.00;1.33;;;;;20.78;52.27;101153.53;5041445;28;47191;-86
2022/06/27 03:32:37;;;;;;;;;1.33;1.33;;;;;20.86;51.87;101167.34;5040849;28;45601;-85
2022/06/27 03:35:02;;;;;;;;;1.00;1.00;;;;;20.76;52.23;101160.06;5052955;28;45521;-84
2022/06/27 03:37:28;;;;;;;;;1.00;1.00;;;;;20.64;52.26;101141.09;5046927;28;45852;-86
2022/06/27 03:39:53;;;;;;;;;1.00;1.00;;;;;20.68;52.71;101140.88;5044935;28;46005;-86
2022/06/27 03:42:18;;;;;;;;;2.00;1.00;;;;;20.83;52.42;101170.28;5045031;28;45481;-84
2022/06/27 03:44:44;;;;;;;;;1.33;1.33;;;;;20.82;52.15;101155.03;5045955;28;45476;-85
2022/06/27 03:47:09;;;;;;;;;1.00;1.00;;;;;20.57;52.43;101114.63;5046584;28;45321;-85
2022/06/27 03:52:18;;;;;;;;;2.00;2.00;;;;;20.82;52.69;101151.47;5053065;28;45423;-85
2022/06/27 03:54:44;;;;;;;;;1.00;1.00;;;;;20.83;52.15;101155.88;5054121;28;45489;-85
2022/06/27 03:57:09;;;;;;;;;1.00;1.00;;;;;20.76;52.38;101152.81;5044971;28;45393;-85
2022/06/27 03:59:34;;;;;;;;;2.00;0.33;;;;;20.71;52.13;101144.19;5054213;28;47278;-84
2022/06/27 04:02:00;;;;;;;;;2.33;1.00;;;;;20.82;52.11;101167.72;5046990;28;45682;-85
2022/06/27 04:04:25;;;;;;;;;1.00;1.00;;;;;20.83;51.51;101166.72;5049029;28;45452;-85
2022/06/27 04:06:50;;;;;;;;;1.00;1.00;;;;;20.79;51.59;101166.13;5048516;28;45474;-86
2022/06/27 04:09:16;;;;;;;;;1.00;1.00;;;;;20.75;51.35;101156.50;5053712;28;53455;-85
2022/06/27 04:11:41;;;;;;;;;2.00;2.00;;;;;20.86;51.28;101171.88;5043754;28;47895;-85
2022/06/27 04:14:06;;;;;;;;;1.00;1.00;;;;;20.89;51.65;101189.78;5056675;28;45387;-85
2022/06/27 04:16:32;;;;;;;;;2.00;1.00;;;;;20.76;51.18;101168.19;5048785;28;45442;-85
2022/06/27 04:18:57;;;;;;;;;1.00;1.00;;;;;20.89;51.49;101187.91;5048233;28;46566;-85
2022/06/27 04:21:22;;;;;;;;;1.00;1.00;;;;;20.76;51.46;101160.06;5048566;28;45388;-85
2022/06/27 04:23:48;;;;;;;;;2.00;2.00;;;;;20.58;50.79;101151.56;5043221;28;46181;-85
2022/06/27 04:26:13;;;;;;;;;3.00;1.33;;;;;20.91;51.64;101214.88;5050952;28;45514;-85
2022/06/27 04:28:38;;;;;;;;;2.00;2.00;;;;;20.97;51.41;101214.41;5052012;28;45505;-85
2022/06/27 04:31:04;;;;;;;;;2.00;2.00;;;;;20.83;50.92;101191.97;5054182;28;45450;-86
2022/06/27 04:33:29;;;;;;;;;1.33;1.33;;;;;20.96;51.07;101212.69;5053376;28;45526;-84
2022/06/27 04:35:55;;;;;;;;;4.67;2.00;;;;;21.00;50.73;101234.00;5054925;28;45571;-86
2022/06/27 04:38:20;;;;;;;;;0.00;0.00;;;;;20.99;51.26;101237.69;5055185;28;46284;-85
2022/06/27 04:40:46;;;;;;;;;1.00;1.00;;;;;20.87;50.71;101216.97;5050132;28;45415;-85
2022/06/27 04:43:12;;;;;;;;;2.33;1.00;;;;;21.06;50.64;101246.19;5054047;28;45495;-85
2022/06/27 04:45:37;;;;;;;;;1.00;1.00;;;;;20.83;50.44;101207.38;5054537;28;46720;-85
2022/06/27 04:48:05;;;;;;;;;1.00;1.00;;;;;21.09;50.83;101243.22;5051773;28;45536;-85
2022/06/27 04:50:31;;;;;;;;;1.00;1.00;;;;;21.11;50.48;101243.09;5053194;28;45508;-85
2022/06/27 04:53:01;;;;;;;;;0.67;0.67;;;;;21.10;50.60;101238.69;5057483;28;45262;-85
2022/06/27 04:55:27;;;;;;;;;1.00;0.67;;;;;21.01;50.76;101210.47;5055997;28;45690;-84
2022/06/27 04:57:52;;;;;;;;;1.00;1.00;;;;;21.01;50.52;101205.03;5052342;28;46287;-86
2022/06/27 05:00:19;;;;;;;;;1.00;1.00;;;;;21.01;49.65;101194.19;5046936;28;45489;-84
2022/06/27 05:02:45;;;;;;;;;2.67;1.67;;;;;21.16;49.98;101214.63;5044722;28;45491;-85
2022/06/27 05:05:10;;;;;;;;;1.00;1.00;;;;;20.99;50.02;101186.19;5045215;28;45749;-85
2022/06/27 05:07:36;;;;;;;;;1.67;1.67;;;;;21.16;50.27;101203.78;5046923;28;46370;-85
2022/06/27 05:10:02;;;;;;;;;0.00;0.00;;;;;20.90;50.20;101148.13;5047624;28;45518;-85
2022/06/27 05:12:29;;;;;;;;;2.00;1.00;;;;;21.22;49.80;101199.72;5045938;28;45459;-85
2022/06/27 05:14:55;;;;;;;;;2.00;1.00;;;;;21.22;50.33;101192.44;5045999;28;45447;-84
2022/06/27 05:17:21;;;;;;;;;1.00;1.00;;;;;21.22;49.98;101208.72;5053582;28;45392;-84
2022/06/27 05:19:46;;;;;;;;;2.67;2.67;;;;;20.98;50.37;101162.78;5046715;28;45768;-84
2022/06/27 05:22:12;;;;;;;;;1.00;1.00;;;;;21.26;50.55;101203.94;5047176;28;45363;-86
2022/06/27 05:24:38;;;;;;;;;2.00;1.00;;;;;21.21;50.15;101201.59;5051484;28;45521;-85
2022/06/27 05:27:04;;;;;;;;;1.33;1.33;;;;;20.98;50.15;101168.22;5049212;28;47432;-84
2022/06/27 05:29:29;;;;;;;;;0.33;0.33;;;;;21.28;50.25;101218.19;5025324;28;45393;-85
2022/06/27 05:31:55;;;;;;;;;2.00;2.00;;;;;20.99;49.96;101147.38;5050884;28;45365;-84
2022/06/27 05:34:21;;;;;;;;;1.00;1.00;;;;;21.29;50.12;101200.94;5035692;28;45709;-85
2022/06/27 05:36:47;;;;;;;;;1.33;1.00;;;;;21.34;50.40;101220.41;5052827;28;45424;-85
2022/06/27 05:39:13;;;;;;;;;2.00;2.00;;;;;21.07;49.61;101172.88;5046937;28;45519;-85
2022/06/27 05:41:39;;;;;;;;;1.00;1.00;;;;;21.24;49.73;101185.06;5045667;28;45513;-85
2022/06/27 05:44:05;;;;;;;;;0.00;0.00;;;;;21.29;50.22;101199.09;5046987;28;45612;-85
2022/06/27 05:46:31;;;;;;;;;1.00;1.00;;;;;21.05;50.20;101161.31;5048097;28;45475;-85
2022/06/27 05:48:57;;;;;;;;;1.00;1.00;;;;;21.17;49.55;101186.56;5046418;28;45472;-85
2022/06/27 05:51:23;;;;;;;;;1.67;1.33;;;;;21.31;50.12;101226.09;5045263;28;45289;-85
2022/06/27 05:53:49;;;;;;;;;4.00;1.67;;;;;21.18;49.68;101207.25;5042345;28;45411;-85
2022/06/27 05:56:15;;;;;;;;;1.67;1.67;;;;;21.33;49.71;101231.38;5048334;28;46434;-85
2022/06/27 05:58:41;;;;;;;;;1.00;1.00;;;;;20.67;49.86;101129.16;5046091;28;45427;-85
2022/06/27 06:01:09;;;;;;;;;1.33;1.33;;;;;21.37;49.99;101241.00;5049997;28;45492;-85
2022/06/27 06:03:34;;;;;;;;;1.00;1.00;;;;;21.03;49.50;101187.66;5053212;28;45737;-85
2022/06/27 06:06:00;;;;;;;;;1.00;1.00;;;;;21.25;49.96;101218.44;5040356;28;46234;-85
2022/06/27 06:08:26;;;;;;;;;1.00;1.00;;;;;21.39;49.12;101249.88;5042122;28;45489;-85
2022/06/27 06:10:51;;;;;;;;;3.33;2.00;;;;;21.00;49.80;101200.59;5028051;28;45346;-86
2022/06/27 06:13:18;;;;;;;;;5.00;3.33;;;;;21.36;49.79;101271.81;5046535;28;45531;-84
2022/06/27 06:15:45;;;;;;;;;1.00;1.00;;;;;21.15;49.58;101244.59;5046021;28;47442;-85
2022/06/27 06:18:11;;;;;;;;;1.00;1.00;;;;;21.31;49.90;101266.78;5043144;28;45586;-85
2022/06/27 06:20:37;;;;;;;;;2.00;2.00;;;;;20.73;50.34;101171.16;5041873;28;45656;-87
2022/06/27 06:23:03;;;;;;;;;2.00;0.67;;;;;21.36;49.88;101267.25;5050254;28;45596;-86
2022/06/27 06:25:29;;;;;;;;;2.00;1.00;;;;;21.25;49.82;101234.72;5048239;28;45425;-87
2022/06/27 06:28:00;;;;;;;;;1.00;1.00;;;;;21.38;49.73;101240.88;5052681;28;45455;-84
2022/06/27 06:30:26;;;;;;;;;64.25;48.75;;;;;21.44;49.46;101272.94;5051841;28;45415;-84
2022/06/27 06:32:55;;;;;;;;;2.33;2.33;;;;;21.47;50.12;101285.41;5045561;28;45816;-84
2022/06/27 06:35:20;;;;;;;;;1.00;1.00;;;;;21.11;49.80;101224.13;5047178;28;46290;-83
2022/06/27 06:37:46;;;;;;;;;2.00;2.00;;;;;21.40;49.64;101262.47;5052293;28;45585;-85
2022/06/27 06:40:17;;;;;;;;;1.00;1.00;;;;;21.20;50.04;101237.81;5050623;28;45777;-86
2022/06/27 06:42:43;;;;;;;;;1.00;1.00;;;;;21.55;50.39;101304.63;5048502;28;45692;-87
2022/06/27 06:45:10;;;;;;;;;3.00;2.00;;;;;21.50;49.72;101302.28;5047554;28;45524;-87
2022/06/27 06:47:46;;;;;;;;;2.33;2.33;;;;;21.54;50.15;101313.75;5027973;28;45776;-85
2022/06/27 06:50:15;;;;;;;;;4.00;4.00;;;;;20.70;49.91;101171.38;5051277;28;45411;-91
2022/06/27 06:52:41;;;;;;;;;2.00;2.00;;;;;21.42;49.57;101301.16;5054736;28;45788;-88
2022/06/27 06:55:08;;;;;;;;;1.00;1.00;;;;;20.75;50.26;101183.59;5052476;28;46791;-91
2022/06/27 06:57:33;;;;;;;;;2.00;2.00;;;;;21.73;49.75;101328.53;5051712;28;45374;-85
2022/06/27 06:59:59;;;;;;;;;1.00;1.00;;;;;21.63;49.73;101321.16;5047357;28;45624;-85
2022/06/27 07:02:25;;;;;;;;;3.33;3.00;;;;;21.62;49.63;101313.13;5041343;28;45482;-85
2022/06/27 07:04:52;;;;;;;;;1.67;1.67;;;;;21.46;50.12;101276.38;5047292;28;46780;-85
2022/06/27 07:07:19;;;;;;;;;1.00;1.00;;;;;21.87;49.54;101342.72;5045356;28;45339;-84
2022/06/27 07:09:44;;;;;;;;;2.00;0.33;;;;;21.76;49.58;101321.00;5046879;28;45387;-85
2022/06/27 07:12:10;;;;;;;;;2.00;2.00;;;;;21.99;49.54;101356.25;5031113;28;45860;-85
2022/06/27 07:14:35;;;;;;;;;1.00;1.00;;;;;22.03;49.03;101357.72;5052777;28;47028;-85
2022/06/27 07:17:00;;;;;;;;;3.00;1.67;;;;;22.03;48.88;101360.44;5039117;28;45395;-83
2022/06/27 07:19:26;;;;;;;;;1.33;1.00;;;;;22.01;48.61;101363.28;5043880;28;45508;-82
2022/06/27 07:21:52;;;;;;;;;2.00;2.00;;;;;21.86;48.49;101356.38;5039413;28;45441;-85
2022/06/27 07:24:17;;;;;;;;;1.00;1.00;;;;;21.95;48.45;101382.78;5040432;28;45698;-82
2022/06/27 07:26:43;;;;;;;;;1.67;1.00;;;;;21.58;49.01;101328.78;5041429;28;45480;-81
2022/06/27 07:29:09;;;;;;;;;2.00;0.67;;;;;21.74;49.41;101362.81;5037349;28;45708;-81
2022/06/27 07:31:34;;;;;;;;;2.00;1.00;;;;;21.54;49.12;101338.19;5050224;28;45566;-82
2022/06/27 07:34:02;;;;;;;;;1.33;0.67;;;;;21.26;49.62;101296.97;5044269;28;46307;-82
2022/06/27 07:36:28;;;;;;;;;2.00;2.00;;;;;21.85;49.16;101379.09;5046601;28;45558;-82
2022/06/27 07:38:54;;;;;;;;;2.00;2.00;;;;;21.87;50.02;101383.41;5045449;28;45499;-81
2022/06/27 07:41:22;;;;;;;;;1.00;1.00;;;;;21.30;49.82;101270.44;5035643;28;45726;-82
2022/06/27 07:43:48;;;;;;;;;2.00;2.00;;;;;21.94;49.32;101370.22;5052882;28;46513;-82
2022/06/27 07:46:17;;;;;;;;;4.33;2.00;;;;;21.59;49.62;101311.53;5049043;28;45474;-83
2022/06/27 07:48:50;;;;;;;;;2.33;1.00;;;;;22.02;48.88;101366.88;5050960;28;45540;-82
2022/06/27 07:51:19;;;;;;;;;2.00;2.00;;;;;21.10;48.17;101211.59;5043183;28;45559;-82
2022/06/27 07:53:46;;;;;;;;;2.67;2.00;;;;;22.20;47.81;101388.94;5050671;28;47050;-83
2022/06/27 07:56:15;;;;;;;;;1.00;1.00;;;;;22.22;48.36;101371.56;5043709;28;45396;-83
2022/06/27 07:58:41;;;;;;;;;1.00;1.00;;;;;22.41;48.06;101397.19;5050093;28;45662;-81
2022/06/27 08:01:14;;;;;;;;;21.00;16.67;;;;;22.47;48.47;101391.22;5049976;28;45813;-84
2022/06/27 08:03:40;;;;;;;;;6.00;6.00;;;;;22.53;47.57;101393.44;5050769;28;45453;-85
2022/06/27 08:06:07;;;;;;;;;1.00;1.00;;;;;22.54;47.23;101395.16;5051572;28;45435;-82
2022/06/27 08:08:37;;;;;;;;;0.67;0.67;;;;;22.47;47.48;101396.66;5053914;28;45745;-82
2022/06/27 08:11:03;;;;;;;;;2.00;2.00;;;;;22.51;47.21;101401.69;5056104;28;45653;-83
2022/06/27 08:13:29;;;;;;;;;1.00;1.00;;;;;22.49;47.26;101386.53;5049592;28;46792;-83
2022/06/27 08:15:55;;;;;;;;;0.00;0.00;;;;;22.39;47.41;101369.28;5048566;28;45633;-85
2022/06/27 08:18:36;;;;;;;;;4.00;1.00;;;;;22.14;47.01;101335.97;5053781;28;45495;-87
2022/06/27 08:21:08;;;;;;;;;1.67;1.67;;;;;21.34;47.08;101216.84;5053620;28;45529;-83
2022/06/27 08:23:37;;;;;;;;;1.00;1.00;;;;;22.44;47.43;101415.94;5043444;28;45928;-83
2022/06/27 08:26:06;;;;;;;;;0.00;0.00;;;;;22.24;47.18;101401.28;5055296;28;45550;-83
2022/06/27 08:28:33;;;;;;;;;1.00;1.00;;;;;22.13;46.84;101419.28;5048944;28;45485;-86
2022/06/27 08:31:01;;;;;;;;;1.00;1.00;;;;;21.48;48.54;101354.94;5050853;28;45629;-85
2022/06/27 08:33:29;;;;;;;;;2.33;2.33;;;;;21.75;52.05;101416.09;5053961;28;46365;-85
2022/06/27 08:35:59;;;;;;;;;3.67;3.67;;;;;21.14;52.92;101316.03;5054319;28;45469;-82
2022/06/27 08:38:25;;;;;;;;;1.67;1.00;;;;;21.95;55.46;101449.78;5043046;28;45430;-83
2022/06/27 08:40:53;;;;;;;;;1.67;0.67;;;;;21.92;54.57;101431.91;5054782;28;45503;-83
2022/06/27 08:43:18;;;;;;;;;1.00;1.00;;;;;21.89;55.46;101416.72;5053396;28;47150;-82
2022/06/27 08:45:51;;;;;;;;;1.33;1.33;;;;;21.99;56.55;101367.97;5055446;28;45489;-89
2022/06/27 08:51:23;;;;;;;;;1.00;1.00;;;;;22.27;56.07;101328.56;5057521;28;45413;-95
2022/06/27 08:53:54;;;;;;;;;3.00;1.00;;;;;22.81;54.88;101415.56;5037132;28;47128;-86
2022/06/27 08:56:20;;;;;;;;;3.33;2.00;;;;;22.24;55.71;101279.97;5053836;28;45411;-90
2022/06/27 08:59:33;;;;;;;;;3.00;3.00;;;;;23.45;56.64;101404.59;5056903;28;45567;-91
2022/06/27 09:01:59;;;;;;;;;3.33;2.00;;;;;23.04;53.04;101292.13;5053267;28;45845;-88
2022/06/27 09:04:24;;;;;;;;;1.00;1.00;;;;;23.34;52.97;101323.03;5048080;28;46377;-88
2022/06/27 09:06:50;;;;;;;;;1.00;1.00;;;;;23.59;52.36;101368.00;5031298;28;45477;-88
2022/06/27 09:09:15;;;;;;;;;2.00;2.00;;;;;23.10;50.07;101290.72;5054347;28;45377;-87
2022/06/27 09:15:24;;;;;;;;;1.33;1.33;;;;;24.01;50.17;101422.34;5033416;28;46760;-87
2022/06/27 09:18:07;;;;;;;;;2.67;1.00;;;;;24.25;50.01;101386.56;5035400;28;45411;-88
2022/06/27 09:20:52;;;;;;;;;1.00;1.00;;;;;24.48;47.04;101294.53;5041039;28;45469;-87
2022/06/27 09:23:53;;;;;;;;;1.00;1.00;;;;;25.70;45.90;101398.41;5045235;28;45551;-87
2022/06/27 09:27:03;;;;;;;;;1.00;1.00;;;;;26.41;45.65;101402.34;5052388;28;46585;-92
2022/06/27 09:30:21;;;;;;;;;1.00;1.00;;;;;27.02;42.88;101404.34;5044975;28;45507;-92
2022/06/27 09:32:50;;;;;;;;;1.33;1.00;;;;;27.09;43.14;101314.25;5057555;28;45372;-88
2022/06/27 09:36:13;;;;;;;;;2.00;2.00;;;;;28.10;43.33;101404.88;5050786;28;45527;-89
2022/06/27 09:38:44;;;;;;;;;10.00;8.00;;;;;28.69;41.69;101393.03;4970117;28;48053;-91
2022/06/27 09:41:12;;;;;;;;;0.75;0.75;;;;;28.87;38.41;101368.16;4968218;28;45690;-88
2022/06/27 09:43:42;;;;;;;;;2.25;1.50;;;;;28.91;37.93;101329.22;4955532;28;45612;-92
2022/06/27 09:46:13;;;;;;;;;1.67;0.00;;;;;29.66;37.46;101405.84;4972198;28;45554;-90
2022/06/27 09:52:18;;;;;;;;;0.00;0.00;;;;;30.16;36.26;101408.44;4935249;28;45466;-90
2022/06/27 09:54:47;;;;;;;;;1.50;0.00;;;;;30.29;35.36;101386.72;4936867;28;45627;-89
2022/06/27 09:57:14;;;;;;;;;1.00;1.00;;;;;30.09;33.28;101301.91;4935929;28;45796;-89
2022/06/27 10:00:27;;;;;;;;;0.00;0.00;;;;;31.07;33.14;101401.28;4939218;28;46440;-90
2022/06/27 10:02:57;;;;;;;;;0.00;0.00;;;;;30.33;31.27;101233.19;4913439;28;45634;-87
2022/06/27 10:05:22;;;;;;;;;0.00;0.00;;;;;31.47;31.47;101399.25;4910227;28;45524;-87
2022/06/27 10:08:00;;;;;;;;;1.50;1.00;;;;;31.52;31.19;101385.75;4914890;28;45489;-87
2022/06/27 10:10:28;;;;;;;;;0.00;0.00;;;;;31.78;30.22;101390.78;4909463;28;46259;-87
2022/06/27 10:13:03;;;;;;;;;0.25;0.25;;;;;31.42;29.82;101341.06;4935703;28;45634;-86
2022/06/27 10:15:30;;;;;;;;;0.00;0.00;;;;;31.76;29.30;101398.38;4943973;28;48598;-84
2022/06/27 10:17:58;;;;;;;;;0.00;0.00;;;;;31.82;29.51;101399.50;4952994;28;45561;-86
2022/06/27 10:20:29;;;;;;;;;0.00;0.00;;;;;31.84;29.32;101400.16;4950339;28;46179;-85
2022/06/27 10:23:03;;;;;;;;;0.00;0.00;;;;;31.97;27.73;101400.38;4948383;28;45513;-84
2022/06/27 10:25:31;;;;;;;;;0.75;0.75;;;;;32.09;27.22;101411.78;4960569;28;46003;-87
2022/06/27 10:28:29;;;;;;;;;1.75;0.00;;;;;32.31;27.36;101402.50;5003377;28;45477;-86
2022/06/27 10:30:55;;;;;;;;;0.25;0.25;;;;;32.44;27.00;101400.94;5005125;28;46511;-84
2022/06/27 10:33:21;;;;;;;;;0.00;0.00;;;;;32.52;26.56;101390.69;5039428;28;45388;-83
2022/06/27 10:36:18;;;;;;;;;1.25;0.25;;;;;32.70;26.85;101384.69;5027799;28;45585;-85
2022/06/27 10:38:56;;;;;;;;;1.00;0.00;;;;;32.34;26.47;101313.81;5045092;28;45426;-92
2022/06/27 10:41:23;;;;;;;;;0.00;0.00;;;;;32.83;26.51;101405.19;5032202;28;48305;-86
2022/06/27 10:43:49;;;;;;;;;2.00;0.00;;;;;32.92;26.47;101395.72;5051879;28;45397;-84
2022/06/27 10:46:17;;;;;;;;;0.00;0.00;;;;;32.99;26.42;101396.63;5049983;28;45948;-92
2022/06/27 10:48:51;;;;;;;;;0.00;0.00;;;;;33.10;25.54;101400.78;5048829;28;45519;-82
2022/06/27 10:51:30;;;;;;;;;0.00;0.00;;;;;32.96;25.47;101391.50;5050472;28;46172;-83
2022/06/27 10:54:04;;;;;;;;;0.00;0.00;;;;;33.03;25.50;101389.66;5047462;28;45520;-82
2022/06/27 10:56:29;;;;;;;;;1.67;1.67;;;;;33.00;25.65;101396.44;5047464;28;45630;-84
2022/06/27 10:59:03;;;;;;;;;0.25;0.00;;;;;33.00;25.05;101387.31;5054030;28;45381;-84
2022/06/27 11:01:33;;;;;;;;;1.33;1.33;;;;;32.79;25.91;101361.41;5051821;28;46311;-83
2022/06/27 11:04:39;;;;;;;;;0.50;0.00;;;;;32.97;25.86;101396.84;5051857;28;45592;-82
2022/06/27 11:07:09;;;;;;;;;0.00;0.00;;;;;32.30;25.10;101286.81;5028527;28;45532;-84
2022/06/27 11:10:17;;;;;;;;;0.75;0.75;;;;;32.92;24.48;101407.63;5052428;28;45918;-83
2022/06/27 11:12:42;;;;;;;;;0.00;0.00;;;;;32.16;24.07;101286.69;5045407;28;45476;-84
2022/06/27 11:15:11;;;;;;;;;0.00;0.00;;;;;32.75;24.05;101384.09;5041277;28;45412;-85
2022/06/27 11:17:45;;;;;;;;;0.00;0.00;;;;;32.73;23.82;101397.22;5043275;28;45491;-86
2022/06/27 11:20:15;;;;;;;;;0.25;0.25;;;;;32.80;23.58;101393.50;5043340;28;45486;-83
2022/06/27 11:22:54;;;;;;;;;0.00;0.00;;;;;32.68;23.43;101388.69;5048194;28;46513;-83
2022/06/27 11:25:21;;;;;;;;;0.50;0.50;;;;;32.70;23.51;101394.88;5045697;28;45518;-82
2022/06/27 11:27:50;;;;;;;;;1.00;1.00;;;;;32.46;24.08;101355.53;5046226;28;45597;-82
2022/06/27 11:33:25;;;;;;;;;8.33;8.00;;;;;32.46;23.53;101399.69;5042699;28;45650;-81
2022/06/27 11:35:52;;;;;;;;;0.75;0.75;;;;;32.34;23.43;101399.34;5044460;28;45636;-81
2022/06/27 11:38:40;;;;;;;;;0.50;0.50;;;;;32.28;23.66;101396.53;5041438;28;45327;-82
2022/06/27 11:41:09;;;;;;;;;1.00;0.75;;;;;32.31;23.30;101399.75;5044945;28;45545;-81
2022/06/27 11:43:49;;;;;;;;;0.00;0.00;;;;;32.23;23.08;101387.97;5047204;28;46356;-82
2022/06/27 11:46:41;;;;;;;;;0.00;0.00;;;;;32.07;23.00;101378.88;5045776;28;45516;-81
2022/06/27 11:49:11;;;;;;;;;1.50;0.00;;;;;32.12;23.26;101392.97;5044815;28;45461;-81